Time;durP1;ratioP1;P1;durP2;ratioP2;P2;SDS_P1;SDS_P2;PMS_P1;PMS_P2;Temp;Humidity;BMP_temperature;BMP_pressure;BME280_temperature;BME280_humidity;BME280_pressure;Samples;Min_cycle;Max_cycle;Signal;HPM_P1;HPM_P2
2021/04/16 00:00:27;;;;;;;21.60;11.55;;;;;;;0.62;97.84;97778.00;5059799;28;20035;-83
2021/04/16 00:02:52;;;;;;;21.52;11.43;;;;;;;0.51;97.71;97775.59;5076060;28;20483;-83
2021/04/16 00:05:19;;;;;;;22.38;12.13;;;;;;;0.35;97.81;97774.13;5059159;28;20032;-83
2021/04/16 00:07:44;;;;;;;24.63;12.18;;;;;;;0.35;97.73;97776.75;5093063;28;20107;-83
2021/04/16 00:10:14;;;;;;;24.00;12.82;;;;;;;0.29;98.92;97770.75;5059253;28;20047;-83
2021/04/16 00:12:40;;;;;;;24.70;12.57;;;;;;;0.22;100.00;97782.25;5059193;28;20068;-83
2021/04/16 00:15:11;;;;;;;31.85;16.42;;;;;;;0.23;100.00;97791.91;5076273;28;20444;-83
2021/04/16 00:17:37;;;;;;;30.02;15.80;;;;;;;0.28;100.00;97793.53;5075226;28;20097;-83
2021/04/16 00:20:06;;;;;;;30.77;15.85;;;;;;;0.33;100.00;97786.47;5058843;28;20024;-82
2021/04/16 00:22:31;;;;;;;22.45;12.43;;;;;;;0.40;98.69;97774.91;5058750;28;20410;-83
2021/04/16 00:24:57;;;;;;;29.30;12.45;;;;;;;0.40;97.80;97761.75;5058875;28;20024;-83
2021/04/16 00:27:22;;;;;;;23.52;12.25;;;;;;;0.52;97.14;97755.41;5075146;28;20028;-82
2021/04/16 00:29:48;;;;;;;26.83;12.95;;;;;;;0.52;96.20;97756.25;5074899;28;20028;-83
2021/04/16 00:32:14;;;;;;;25.50;13.55;;;;;;;0.61;95.30;97763.13;5058351;28;20106;-82
2021/04/16 00:34:39;;;;;;;25.52;13.40;;;;;;;0.51;95.21;97764.19;5091996;28;20553;-82
2021/04/16 00:37:05;;;;;;;23.55;12.82;;;;;;;0.44;95.12;97763.44;5058592;28;20045;-83
2021/04/16 00:39:30;;;;;;;23.25;13.05;;;;;;;0.34;96.06;97756.59;5058357;28;20391;-82
2021/04/16 00:41:56;;;;;;;29.27;14.18;;;;;;;0.38;97.07;97753.03;5058344;28;20115;-83
2021/04/16 00:44:21;;;;;;;27.38;14.07;;;;;;;0.33;97.64;97748.75;5058323;28;20031;-83
2021/04/16 00:46:54;;;;;;;26.33;13.95;;;;;;;0.34;97.80;97761.88;5058410;28;20114;-83
2021/04/16 00:49:21;;;;;;;;;;;;;;;0.22;98.88;97761.22;5059041;28;20056;-83
2021/04/16 00:51:49;;;;;;;23.92;12.40;;;;;;;0.12;99.40;97768.44;5092079;28;20003;-83
2021/04/16 00:54:26;;;;;;;24.75;13.82;;;;;;;0.11;100.00;97771.06;5058312;28;20039;-83
2021/04/16 00:56:52;;;;;;;29.40;14.80;;;;;;;0.06;100.00;97765.91;5058051;28;20035;-84
2021/04/16 00:59:22;;;;;;;38.58;17.83;;;;;;;0.10;100.00;97764.94;5074686;28;20038;-83
2021/04/16 01:01:47;;;;;;;44.70;21.63;;;;;;;0.17;100.00;97779.72;5058397;28;20528;-83
2021/04/16 01:04:13;;;;;;;40.70;21.50;;;;;;;0.10;100.00;97771.97;5058333;28;20115;-83
2021/04/16 01:06:43;;;;;;;46.92;21.70;;;;;;;0.16;100.00;97774.47;5058122;28;20058;-83
2021/04/16 01:09:09;;;;;;;42.25;21.30;;;;;;;0.24;100.00;97789.25;5059002;28;20031;-84
2021/04/16 01:11:35;;;;;;;41.38;19.60;;;;;;;0.05;100.00;97774.69;5057822;28;20024;-83
2021/04/16 01:14:02;;;;;;;43.97;20.45;;;;;;;0.12;100.00;97789.47;5071181;28;20021;-83
2021/04/16 01:16:32;;;;;;;31.05;16.90;;;;;;;0.04;100.00;97788.72;5038106;28;20036;-82
2021/04/16 01:18:59;;;;;;;29.73;15.93;;;;;;;0.03;100.00;97792.25;5038344;28;20024;-84
2021/04/16 01:21:35;;;;;;;31.33;16.27;;;;;;;0.00;100.00;97789.69;5037889;28;20020;-83
2021/04/16 01:24:23;;;;;;;32.83;16.20;;;;;;;0.01;100.00;97796.66;5037474;28;20078;-83
2021/04/16 01:26:50;;;;;;;36.10;17.63;;;;;;;-0.11;100.00;97788.97;5037657;28;20115;-82
2021/04/16 01:29:16;;;;;;;35.60;19.55;;;;;;;-0.06;100.00;97798.50;5037740;28;20029;-82
2021/04/16 01:31:47;;;;;;;29.35;16.25;;;;;;;-0.06;100.00;97793.25;5038054;28;20028;-82
2021/04/16 01:34:23;;;;;;;32.22;16.33;;;;;;;-0.03;100.00;97795.81;5038608;28;20061;-83
2021/04/16 01:36:51;;;;;;;34.45;16.90;;;;;;;-0.07;100.00;97801.19;5071090;28;20028;-83
2021/04/16 01:39:16;;;;;;;28.45;15.73;;;;;;;-0.10;100.00;97793.34;5037296;28;20051;-83
2021/04/16 01:41:42;;;;;;;34.90;16.13;;;;;;;-0.11;100.00;97794.22;5037396;28;20534;-83
2021/04/16 01:44:12;;;;;;;26.05;13.32;;;;;;;0.01;100.00;97791.38;5053849;28;20454;-82
2021/04/16 01:47:06;;;;;;;24.45;13.20;;;;;;;0.08;99.04;97793.03;5037403;28;20031;-83
2021/04/16 01:49:41;;;;;;;29.00;15.40;;;;;;;0.08;99.06;97793.03;5037416;28;20064;-83
2021/04/16 01:52:10;;;;;;;32.90;15.57;;;;;;;-0.01;98.52;97778.28;5037869;28;20033;-82
2021/04/16 01:54:39;;;;;;;26.67;14.45;;;;;;;0.05;99.02;97781.69;5037654;28;20035;-82
2021/04/16 01:57:08;;;;;;;31.27;16.50;;;;;;;0.10;99.46;97779.84;5038140;28;20037;-82
2021/04/16 01:59:35;;;;;;;29.00;15.30;;;;;;;-0.05;99.28;97778.34;5039040;28;20028;-83
2021/04/16 02:02:02;;;;;;;32.88;17.35;;;;;;;-0.07;99.46;97786.28;5077815;28;20402;-83
2021/04/16 02:04:28;;;;;;;29.88;15.38;;;;;;;-0.03;99.19;97776.56;5057765;28;20036;-83
2021/04/16 02:06:54;;;;;;;28.98;15.52;;;;;;;-0.14;99.64;97782.00;5037570;28;20020;-83
2021/04/16 02:09:26;;;;;;;31.08;15.32;;;;;;;-0.14;100.00;97784.63;5060036;28;20031;-82
2021/04/16 02:11:51;;;;;;;29.98;15.48;;;;;;;-0.23;100.00;97779.53;5071339;28;20032;-83
2021/04/16 02:14:23;;;;;;;29.83;15.35;;;;;;;-0.28;100.00;97777.88;5037160;28;20139;-74
2021/04/16 02:16:53;;;;;;;31.67;15.02;;;;;;;-0.23;100.00;97781.28;5072689;28;20466;-83
2021/04/16 02:19:19;;;;;;;26.38;13.07;;;;;;;-0.23;100.00;97786.53;5057658;28;20498;-82
2021/04/16 02:21:48;;;;;;;23.25;13.25;;;;;;;-0.31;100.00;97780.53;5057109;28;20093;-82
2021/04/16 02:24:14;;;;;;;25.63;13.07;;;;;;;-0.40;100.00;97786.78;5074498;28;20576;-83
2021/04/16 02:26:39;;;;;;;29.73;14.75;;;;;;;-0.43;100.00;97796.50;5066398;28;20023;-83
2021/04/16 02:29:10;;;;;;;30.48;15.10;;;;;;;-0.41;100.00;97789.44;5077218;28;20426;-83
2021/04/16 02:31:42;;;;;;;35.20;14.85;;;;;;;-0.52;100.00;97778.25;5076891;28;20024;-83
2021/04/16 02:34:08;;;;;;;30.70;15.05;;;;;;;-0.52;100.00;97784.34;5078656;28;20030;-83
2021/04/16 02:36:34;;;;;;;28.27;14.88;;;;;;;-0.55;100.00;97782.63;5076784;28;20051;-83
2021/04/16 02:38:59;;;;;;;27.40;15.70;;;;;;;-0.41;100.00;97795.56;5094345;28;20024;-83
2021/04/16 02:41:25;;;;;;;28.98;16.23;;;;;;;-0.40;100.00;97778.06;5077288;28;20027;-83
2021/04/16 02:43:50;;;;;;;34.00;15.48;;;;;;;-0.35;100.00;97774.47;5077751;28;20075;-82
2021/04/16 02:46:16;;;;;;;34.05;16.52;;;;;;;-0.27;100.00;97792.72;5076283;28;20178;-83
2021/04/16 02:48:42;;;;;;;32.15;16.63;;;;;;;-0.31;100.00;97791.94;5036500;28;20028;-82
2021/04/16 02:51:08;;;;;;;26.98;15.82;;;;;;;-0.34;100.00;97789.31;5053305;28;20082;-82
2021/04/16 02:53:33;;;;;;;30.25;15.30;;;;;;;-0.27;100.00;97782.22;5056994;28;20032;-83
2021/04/16 02:55:59;;;;;;;38.83;16.52;;;;;;;-0.19;100.00;97785.59;5051672;28;20027;-84
2021/04/16 02:58:25;;;;;;;33.05;16.35;;;;;;;-0.20;100.00;97792.63;5070290;28;20024;-84
2021/04/16 03:00:51;;;;;;;37.20;17.10;;;;;;;-0.52;100.00;97741.47;5056740;28;20021;-84
2021/04/16 03:03:17;;;;;;;36.35;18.55;;;;;;;-0.18;100.00;97795.19;5080540;28;20030;-83
2021/04/16 03:05:42;;;;;;;40.03;18.23;;;;;;;-0.22;100.00;97780.41;5060135;28;20430;-83
2021/04/16 03:08:08;;;;;;;30.63;16.17;;;;;;;-0.25;100.00;97788.31;5060030;28;20050;-84
2021/04/16 03:10:36;;;;;;;38.90;17.73;;;;;;;-0.17;100.00;97815.34;5059970;28;20032;-82
2021/04/16 03:13:02;;;;;;;52.83;21.98;;;;;;;-0.13;100.00;97812.66;5076685;28;20027;-83
2021/04/16 03:15:28;;;;;;;70.63;26.98;;;;;;;-0.29;100.00;97797.13;5045259;28;20035;-83
2021/04/16 03:17:53;;;;;;;48.15;22.40;;;;;;;-0.41;100.00;97779.81;5040098;28;20645;-83
2021/04/16 03:20:21;;;;;;;31.65;16.92;;;;;;;-0.24;100.00;97809.31;5039989;28;20066;-83
2021/04/16 03:22:47;;;;;;;34.75;17.20;;;;;;;-0.45;100.00;97787.75;5048971;28;20039;-84
2021/04/16 03:25:14;;;;;;;36.50;17.15;;;;;;;-0.70;100.00;97767.09;5047023;28;20032;-82
2021/04/16 03:27:40;;;;;;;41.15;16.60;;;;;;;-0.71;100.00;97772.38;5064506;28;20058;-82
2021/04/16 03:30:13;;;;;;;46.38;17.25;;;;;;;-0.50;100.00;97814.09;5076116;28;20042;-84
2021/04/16 03:32:39;;;;;;;34.35;16.38;;;;;;;-0.82;100.00;97779.53;5059833;28;20415;-83
2021/04/16 03:35:06;;;;;;;37.30;17.33;;;;;;;-0.68;100.00;97807.31;5073054;28;20025;-84
2021/04/16 03:37:31;;;;;;;36.67;17.30;;;;;;;-0.75;100.00;97800.44;5039545;28;20408;-83
2021/04/16 03:39:57;;;;;;;47.15;18.85;;;;;;;-0.82;100.00;97787.41;5055758;28;20028;-84
2021/04/16 03:42:22;;;;;;;39.72;17.73;;;;;;;-0.82;100.00;97790.91;5039588;28;20079;-83
2021/04/16 03:44:48;;;;;;;39.10;19.50;;;;;;;-0.83;100.00;97791.78;5039936;28;20031;-83
2021/04/16 03:47:17;;;;;;;37.38;17.50;;;;;;;-0.57;100.00;97821.19;5039484;28;20107;-83
2021/04/16 03:49:46;;;;;;;40.85;19.35;;;;;;;-0.52;100.00;97817.63;5051292;28;20431;-83
2021/04/16 03:52:12;;;;;;;36.58;18.55;;;;;;;-0.67;100.00;97782.81;5060863;28;20089;-81
2021/04/16 03:54:45;;;;;;;48.08;18.80;;;;;;;-0.65;100.00;97785.44;5081334;28;20043;-82
2021/04/16 03:57:10;;;;;;;37.10;20.00;;;;;;;-0.58;100.00;97801.06;5055889;28;20419;-83
2021/04/16 03:59:38;;;;;;;64.80;27.48;;;;;;;-0.42;100.00;97829.72;5040604;28;20037;-83
2021/04/16 04:02:04;;;;;;;62.17;25.98;;;;;;;-0.49;100.00;97823.69;5085677;28;20131;-82
2021/04/16 04:04:29;;;;;;;105.03;42.90;;;;;;;-0.55;100.00;97814.16;5065270;28;20177;-84
2021/04/16 04:06:55;;;;;;;94.90;41.50;;;;;;;-0.49;100.00;97814.97;5059918;28;20032;-83
2021/04/16 04:09:22;;;;;;;82.10;37.47;;;;;;;-0.47;100.00;97815.81;5072960;28;20054;-82
2021/04/16 04:11:47;;;;;;;84.60;38.58;;;;;;;-0.55;100.00;97803.63;5079663;28;20035;-81
2021/04/16 04:14:13;;;;;;;96.88;40.85;;;;;;;-0.39;100.00;97825.31;5078978;28;20066;-83
2021/04/16 04:16:53;;;;;;;80.47;27.02;;;;;;;-0.40;100.00;97815.69;5079114;28;20032;-83
2021/04/16 04:19:20;;;;;;;59.88;23.73;;;;;;;-0.34;100.00;97818.22;5087822;28;20032;-82
2021/04/16 04:21:47;;;;;;;38.55;18.15;;;;;;;-0.17;99.62;97846.88;5097010;28;20035;-83
2021/04/16 04:24:13;;;;;;;41.88;18.38;;;;;;;-0.28;98.40;97822.53;5060992;28;20463;-84
2021/04/16 04:26:39;;;;;;;47.95;21.58;;;;;;;-0.07;98.10;97853.75;5059239;28;20028;-83
2021/04/16 04:29:04;;;;;;;47.92;22.85;;;;;;;-0.03;97.27;97840.50;5075092;28;20047;-83
2021/04/16 04:31:31;;;;;;;53.33;22.85;;;;;;;0.12;96.57;97847.31;5059278;28;20031;-84
2021/04/16 04:33:56;;;;;;;56.80;22.70;;;;;;;0.11;96.10;97842.06;5054940;28;20032;-83
2021/04/16 04:36:22;;;;;;;49.80;20.33;;;;;;;0.19;96.05;97855.94;5050940;28;20032;-84
2021/04/16 04:38:51;;;;;;;46.30;20.85;;;;;;;0.24;96.55;97849.75;5075392;28;20032;-83
2021/04/16 04:41:18;;;;;;;48.13;21.63;;;;;;;0.30;96.61;97840.88;5074659;28;20122;-82
2021/04/16 04:43:43;;;;;;;51.13;25.65;;;;;;;0.44;96.59;97850.25;5071234;28;20123;-82
2021/04/16 04:46:09;;;;;;;70.90;27.10;;;;;;;0.54;95.48;97854.47;5059497;28;20062;-84
2021/04/16 04:48:35;;;;;;;62.58;29.25;;;;;;;0.73;94.75;97856.78;5077698;28;20505;-83
2021/04/16 04:51:01;;;;;;;58.97;27.08;;;;;;;0.92;93.94;97850.28;5095186;28;20023;-84
2021/04/16 04:53:29;;;;;;;55.95;27.20;;;;;;;1.23;93.02;97848.75;5062293;28;20475;-84
2021/04/16 04:55:55;;;;;;;59.75;29.52;;;;;;;2.40;87.93;97852.22;5071501;28;20020;-83
2021/04/16 04:58:21;;;;;;;57.45;27.60;;;;;;;3.51;81.35;97859.78;5061241;28;20028;-84
2021/04/16 05:00:46;;;;;;;48.47;23.35;;;;;;;4.06;76.59;97862.50;5078172;28;20483;-84
2021/04/16 05:03:12;;;;;;;48.35;21.95;;;;;;;4.34;75.19;97870.44;5080742;28;20029;-85
2021/04/16 05:05:37;;;;;;;48.25;22.15;;;;;;;4.70;71.79;97877.19;5054901;28;20029;-84
2021/04/16 05:08:03;;;;;;;41.75;21.15;;;;;;;5.25;69.37;97873.50;5046718;28;20055;-85
2021/04/16 05:10:29;;;;;;;54.67;26.52;;;;;;;5.75;68.12;97874.28;5053965;28;20055;-84
2021/04/16 05:12:54;;;;;;;50.22;21.52;;;;;;;6.31;64.46;97872.13;5053162;28;20038;-85
2021/04/16 05:15:21;;;;;;;51.92;21.90;;;;;;;6.61;62.66;97879.81;5067994;28;20080;-85
2021/04/16 05:17:47;;;;;;;49.22;24.15;;;;;;;6.99;61.55;97861.31;5064282;28;20523;-84
2021/04/16 05:20:14;;;;;;;39.92;19.67;;;;;;;7.46;58.11;97872.56;5039288;28;20029;-84
2021/04/16 05:22:40;;;;;;;36.67;21.58;;;;;;;8.09;55.82;97873.22;5063899;28;20036;-84
2021/04/16 05:25:06;;;;;;;61.13;21.88;;;;;;;8.65;54.07;97874.06;5073613;28;20036;-86
2021/04/16 05:27:32;;;;;;;48.67;24.58;;;;;;;9.09;51.98;97874.50;5066001;28;20023;-84
2021/04/16 05:29:57;;;;;;;43.95;22.75;;;;;;;9.76;50.68;97895.03;5060818;28;20035;-89
2021/04/16 05:32:23;;;;;;;42.78;22.45;;;;;;;11.22;47.46;97871.63;5073677;28;20403;-85
2021/04/16 05:34:48;;;;;;;44.47;19.73;;;;;;;12.32;43.76;97882.66;5058721;28;20028;-84
2021/04/16 05:37:14;;;;;;;32.47;17.83;;;;;;;12.84;42.29;97885.53;5092254;28;20131;-84
2021/04/16 05:39:41;;;;;;;27.45;16.75;;;;;;;13.24;41.02;97878.41;5055947;28;20038;-83
2021/04/16 05:42:07;;;;;;;37.00;17.85;;;;;;;13.96;38.98;97880.56;5052973;28;20090;-84
2021/04/16 05:44:32;;;;;;;38.53;18.55;;;;;;;14.94;37.13;97864.47;5065748;28;20032;-84
2021/04/16 05:46:58;;;;;;;43.72;16.20;;;;;;;15.23;36.70;97863.13;5057017;28;20483;-84
2021/04/16 05:49:27;;;;;;;44.03;17.13;;;;;;;15.16;36.36;97840.31;5093103;28;20577;-83
2021/04/16 05:51:53;;;;;;;42.25;15.93;;;;;;;16.05;34.82;97852.22;5057840;28;20038;-83
2021/04/16 05:54:19;;;;;;;34.17;16.08;;;;;;;15.88;35.32;97862.63;5074150;28;20081;-85
2021/04/16 05:56:45;;;;;;;38.40;17.00;;;;;;;16.52;33.71;97867.31;5070800;28;20028;-85
2021/04/16 05:59:10;;;;;;;24.48;13.95;;;;;;;15.49;35.13;97840.47;5077594;28;20041;-85
2021/04/16 06:01:36;;;;;;;25.15;15.13;;;;;;;17.11;33.05;97850.78;5077538;28;20531;-85
2021/04/16 06:04:02;;;;;;;38.03;16.08;;;;;;;16.58;32.91;97849.81;5066339;28;20380;-85
2021/04/16 06:06:27;;;;;;;31.17;16.48;;;;;;;16.67;32.83;97840.97;5056860;28;20024;-85
2021/04/16 06:08:55;;;;;;;32.53;16.15;;;;;;;16.58;33.55;97856.03;5073894;28;20058;-85
2021/04/16 06:11:20;;;;;;;29.98;17.00;;;;;;;17.76;31.62;97821.72;5055351;28;20495;-85
2021/04/16 06:13:46;;;;;;;30.67;16.92;;;;;;;18.81;31.32;97842.19;5057141;28;20088;-85
2021/04/16 06:16:12;;;;;;;34.08;18.88;;;;;;;17.04;32.88;97820.69;5057875;28;20035;-88
2021/04/16 06:18:38;;;;;;;26.35;16.35;;;;;;;18.03;31.36;97850.09;5057159;28;20023;-85
2021/04/16 06:23:50;;;;;;;30.50;16.55;;;;;;;17.89;31.92;97824.22;5010790;28;20038;-84
2021/04/16 06:26:17;;;;;;;35.08;19.15;;;;;;;18.61;30.97;97830.41;5048999;28;20036;-84
2021/04/16 06:28:44;;;;;;;22.42;14.63;;;;;;;18.53;31.44;97832.97;5061208;28;20089;-85
2021/04/16 06:31:10;;;;;;;24.65;15.00;;;;;;;17.60;32.40;97848.38;5079489;28;20503;-85
2021/04/16 06:37:10;;;;;;;27.90;14.15;;;;;;;19.28;30.28;97851.41;5069544;28;20036;-84
2021/04/16 06:39:45;;;;;;;18.80;10.60;;;;;;;19.29;29.84;97842.25;5082164;28;20028;-84
2021/04/16 06:43:03;;;;;;;22.73;11.10;;;;;;;18.00;30.35;97840.38;5063387;28;20032;-85
2021/04/16 06:45:31;;;;;;;11.05;8.18;;;;;;;17.11;32.10;97821.91;5085367;28;20020;-85
2021/04/16 06:48:02;;;;;;;12.57;8.65;;;;;;;16.86;31.66;97813.28;5062431;28;20024;-85
2021/04/16 06:50:33;;;;;;;14.45;9.07;;;;;;;16.95;31.76;97826.84;5050568;28;20055;-85
2021/04/16 06:53:21;;;;;;;16.02;9.20;;;;;;;16.99;32.34;97849.94;5057639;28;20024;-84
2021/04/16 06:56:02;;;;;;;15.07;8.75;;;;;;;17.49;31.31;97850.25;5040584;28;20036;-85
2021/04/16 06:58:35;;;;;;;20.58;8.23;;;;;;;19.24;29.82;97806.56;5041816;28;20079;-85
2021/04/16 07:01:23;;;;;;;14.32;7.88;;;;;;;18.67;28.29;97831.75;5041874;28;20028;-85
2021/04/16 07:03:57;;;;;;;15.82;7.05;;;;;;;18.51;27.94;97834.13;5076350;28;20023;-85
2021/04/16 07:06:29;;;;;;;20.42;8.68;;;;;;;18.20;29.59;97817.84;5057427;28;20029;-85
2021/04/16 07:09:06;;;;;;;19.33;7.70;;;;;;;19.23;28.00;97821.13;5045470;28;20032;-84
2021/04/16 07:11:45;;;;;;;24.17;9.23;;;;;;;18.57;28.19;97823.59;5077972;28;20491;-84
2021/04/16 07:16:55;;;;;;;11.65;6.95;;;;;;;20.31;27.01;97795.44;5195129;22;20399;-83
2021/04/16 07:19:26;;;;;;;13.27;7.20;;;;;;;21.29;24.79;97801.88;4989413;28;20087;-84
2021/04/16 07:22:05;;;;;;;13.88;7.97;;;;;;;22.15;25.62;97813.84;5004661;28;20571;-83
2021/04/16 07:24:50;;;;;;;17.15;7.90;;;;;;;22.09;24.96;97831.69;4982263;28;20052;-84
2021/04/16 07:27:24;;;;;;;19.85;9.50;;;;;;;21.49;24.75;97833.38;5016633;28;20088;-84
2021/04/16 07:29:54;;;;;;;15.10;9.32;;;;;;;21.08;26.06;97815.78;5016905;28;20033;-85
2021/04/16 07:32:26;;;;;;;14.02;8.82;;;;;;;20.19;28.30;97842.75;5000241;28;20029;-85
2021/04/16 07:34:54;;;;;;;22.58;8.52;;;;;;;21.67;25.57;97827.06;5013390;28;20053;-84
2021/04/16 07:37:28;;;;;;;19.60;9.13;;;;;;;22.32;25.83;97831.16;4988423;28;20030;-86
2021/04/16 07:40:09;;;;;;;14.30;8.98;;;;;;;21.67;25.41;97836.09;5017057;28;20120;-85
2021/04/16 07:42:46;;;;;;;9.38;7.40;;;;;;;21.65;24.07;97815.47;5019510;28;20394;-85
2021/04/16 07:45:41;;;;;;;12.15;6.90;;;;;;;22.17;23.43;97832.75;5019004;28;20417;-84
2021/04/16 07:48:13;;;;;;;10.82;6.47;;;;;;;21.57;23.53;97824.41;5030656;28;20120;-86
2021/04/16 07:50:44;;;;;;;8.45;6.15;;;;;;;19.75;26.83;97796.28;5034926;28;20436;-85
2021/04/16 07:53:31;;;;;;;20.40;6.95;;;;;;;21.10;24.24;97823.81;5019730;28;20060;-86
2021/04/16 07:56:07;;;;;;;8.50;6.07;;;;;;;21.13;24.99;97803.59;5037005;28;20063;-86
2021/04/16 07:58:33;;;;;;;10.25;7.00;;;;;;;19.54;26.27;97784.75;5036976;28;20032;-85
2021/04/16 08:01:12;;;;;;;10.50;6.85;;;;;;;20.85;26.20;97822.66;5020871;28;20408;-76
2021/04/16 08:04:00;;;;;;;10.02;6.70;;;;;;;21.25;23.60;97815.97;5021159;28;20025;-85
2021/04/16 08:06:35;;;;;;;8.85;5.82;;;;;;;21.86;22.86;97813.25;5019649;28;20032;-83
2021/04/16 08:09:03;;;;;;;7.20;5.45;;;;;;;22.88;21.48;97790.56;5041858;28;20404;-85
2021/04/16 08:11:30;;;;;;;10.00;5.75;;;;;;;22.60;21.33;97794.50;5023102;28;20024;-84
2021/04/16 08:14:03;;;;;;;7.68;4.53;;;;;;;23.26;21.17;97780.06;5020151;28;20021;-84
2021/04/16 08:16:28;;;;;;;;;;;;;;;23.21;20.86;97802.41;5019789;28;20068;-84
2021/04/16 08:19:03;;;;;;;9.80;5.40;;;;;;;23.47;21.34;97802.31;5035764;28;20367;-84
2021/04/16 08:21:34;;;;;;;8.10;5.10;;;;;;;21.40;21.56;97803.53;5035336;28;20017;-84
2021/04/16 08:23:59;;;;;;;6.53;4.85;;;;;;;21.59;21.71;97804.19;5000448;28;20056;-84
2021/04/16 08:26:46;;;;;;;9.25;5.50;;;;;;;22.26;22.03;97808.13;5015614;28;20037;-83
2021/04/16 08:29:12;;;;;;;13.25;5.80;;;;;;;22.15;22.74;97817.41;5016668;28;20029;-84
2021/04/16 08:31:53;;;;;;;6.95;4.68;;;;;;;22.38;20.84;97792.34;5015735;28;20030;-84
2021/04/16 08:34:21;;;;;;;6.72;4.35;;;;;;;22.85;21.08;97782.69;4995983;28;20030;-83
2021/04/16 08:36:48;;;;;;;10.52;5.07;;;;;;;23.14;20.46;97766.72;4999237;28;20025;-84
2021/04/16 08:39:19;;;;;;;6.65;4.40;;;;;;;22.10;21.58;97797.97;4996400;28;20038;-84
2021/04/16 08:42:07;;;;;;;6.93;4.70;;;;;;;21.95;21.87;97806.91;5014503;28;20037;-84
2021/04/16 08:44:38;;;;;;;9.13;4.43;;;;;;;21.57;22.11;97783.56;5032926;28;20272;-82
2021/04/16 08:47:06;;;;;;;9.43;4.25;;;;;;;23.19;21.29;97774.41;5017470;28;20119;-85
2021/04/16 08:49:34;;;;;;;8.45;3.88;;;;;;;24.05;19.51;97789.31;5004957;28;20029;-83
2021/04/16 08:52:08;;;;;;;5.78;3.50;;;;;;;24.34;19.83;97783.28;5000931;28;20515;-75
2021/04/16 08:54:35;;;;;;;7.28;3.92;;;;;;;24.16;18.61;97777.19;5011297;28;20030;-74
2021/04/16 08:57:06;;;;;;;8.18;3.45;;;;;;;24.50;17.77;97775.03;5026759;28;20040;-81
2021/04/16 08:59:44;;;;;;;5.38;3.40;;;;;;;23.76;17.59;97761.66;5008831;28;20070;-74
2021/04/16 09:02:17;;;;;;;8.55;3.05;;;;;;;24.62;19.02;97759.06;5040048;28;20113;-76
2021/04/16 09:04:52;;;;;;;4.60;3.30;;;;;;;24.78;16.83;97732.50;4999567;28;20037;-77
2021/04/16 09:07:38;;;;;;;5.35;3.10;;;;;;;24.37;18.51;97733.72;5003508;28;20167;-73
2021/04/16 09:10:28;;;;;;;6.32;3.88;;;;;;;24.46;19.41;97742.72;5036393;28;20028;-74
2021/04/16 09:12:56;;;;;;;6.13;3.70;;;;;;;24.73;16.65;97732.16;5009429;28;20190;-73
2021/04/16 09:15:24;;;;;;;7.65;3.42;;;;;;;24.69;18.54;97727.25;5025754;28;20171;-73
2021/04/16 09:17:53;;;;;;;6.03;3.95;;;;;;;24.66;17.07;97727.59;5036028;28;20037;-74
2021/04/16 09:20:22;;;;;;;4.88;3.42;;;;;;;24.78;17.75;97718.81;5037586;28;20493;-74
2021/04/16 09:22:53;;;;;;;5.63;3.33;;;;;;;25.32;17.74;97725.16;4998913;28;20155;-74
2021/04/16 09:25:38;;;;;;;6.70;3.53;;;;;;;26.08;17.16;97710.44;5019676;28;20381;-73
2021/04/16 09:28:21;;;;;;;6.88;3.58;;;;;;;26.45;16.63;97708.69;5032090;28;20021;-73
2021/04/16 09:30:53;;;;;;;5.55;3.58;;;;;;;25.77;16.26;97696.03;5022309;28;20080;-74
2021/04/16 09:33:21;;;;;;;29.17;5.23;;;;;;;25.59;17.94;97690.03;5018644;28;20472;-74
2021/04/16 09:36:05;;;;;;;4.80;3.70;;;;;;;25.88;16.77;97688.19;4996753;28;20273;-74
2021/04/16 09:38:38;;;;;;;16.20;5.78;;;;;;;26.65;16.63;97691.41;5015455;28;20463;-73
2021/04/16 09:41:13;;;;;;;11.45;6.22;;;;;;;26.86;17.34;97688.75;5050201;28;20025;-74
2021/04/16 09:43:39;;;;;;;15.68;4.00;;;;;;;24.21;17.09;97668.13;5033463;28;20033;-73
2021/04/16 09:46:25;;;;;;;6.00;3.60;;;;;;;25.25;17.78;97680.38;5033459;28;20107;-74
2021/04/16 09:48:51;;;;;;;5.53;3.75;;;;;;;23.71;18.26;97666.56;5014931;28;20046;-73
2021/04/16 09:51:20;;;;;;;6.20;3.30;;;;;;;25.13;17.33;97676.34;5013266;28;20503;-77
2021/04/16 09:54:08;;;;;;;8.73;4.53;;;;;;;25.21;17.24;97667.22;5041804;28;20045;-76
2021/04/16 09:56:34;;;;;;;11.93;4.03;;;;;;;24.84;18.05;97669.88;5018814;28;20151;-74
2021/04/16 09:59:05;;;;;;;12.02;4.25;;;;;;;25.04;19.16;97682.09;5049366;28;20024;-75
2021/04/16 10:01:32;;;;;;;5.35;3.70;;;;;;;25.88;17.96;97679.13;5008965;28;20484;-75
2021/04/16 10:04:01;;;;;;;6.68;3.95;;;;;;;24.35;17.84;97652.88;5020832;28;20049;-75
2021/04/16 10:06:37;;;;;;;5.07;3.53;;;;;;;24.38;18.55;97667.03;5025394;28;20527;-75
2021/04/16 10:09:18;;;;;;;19.77;4.15;;;;;;;24.66;19.19;97661.94;5043282;28;20112;-75
2021/04/16 10:11:54;;;;;;;7.55;3.60;;;;;;;24.07;18.06;97666.97;5040631;28;20025;-75
2021/04/16 10:14:25;;;;;;;5.45;3.63;;;;;;;25.76;17.58;97669.66;5016849;28;22070;-75
2021/04/16 10:16:58;;;;;;;11.95;4.00;;;;;;;26.26;16.57;97647.88;5024902;28;20184;-74
2021/04/16 10:19:28;;;;;;;6.60;3.95;;;;;;;27.29;15.19;97645.66;5051313;28;20052;-75
2021/04/16 10:21:54;;;;;;;5.65;3.25;;;;;;;26.89;17.41;97649.06;5024444;28;20491;-75
2021/04/16 12:41:08;;;;;;;5.53;3.30;;;;;;;25.79;17.31;97518.53;5028510;28;20029;-74
2021/04/16 12:43:35;;;;;;;7.63;3.50;;;;;;;24.66;17.13;97525.13;5051010;28;20546;-75
2021/04/16 12:46:01;;;;;;;6.57;3.35;;;;;;;23.03;19.96;97520.59;5009637;28;20085;-75
2021/04/16 12:48:27;;;;;;;6.47;3.20;;;;;;;22.88;18.71;97517.72;5025326;28;20032;-75
2021/04/16 12:50:53;;;;;;;5.55;3.40;;;;;;;23.88;17.88;97530.72;5044251;28;20025;-75
2021/04/16 12:53:19;;;;;;;6.82;3.10;;;;;;;24.13;18.29;97518.69;5025914;28;20104;-74
2021/04/16 12:55:44;;;;;;;4.68;3.15;;;;;;;21.61;18.80;97507.25;5052071;28;20037;-74
2021/04/16 12:58:20;;;;;;;4.93;3.50;;;;;;;21.00;21.19;97508.28;5036211;28;20056;-74
2021/04/16 13:00:48;;;;;;;4.82;3.33;;;;;;;22.87;19.00;97523.34;5025287;28;20060;-74
2021/04/16 13:03:36;;;;;;;7.13;3.55;;;;;;;24.00;17.13;97512.03;5010826;28;20047;-74
2021/04/16 13:06:03;;;;;;;7.50;4.70;;;;;;;23.30;17.83;97508.41;5022132;28;20037;-74
2021/04/16 13:08:28;;;;;;;7.75;3.72;;;;;;;22.07;19.14;97512.19;5021860;28;20047;-74
2021/04/16 13:10:54;;;;;;;314.65;157.43;;;;;;;21.03;20.18;97518.84;5035371;28;20036;-75
2021/04/16 13:13:19;;;;;;;22.27;12.18;;;;;;;21.52;20.41;97508.25;5034755;28;20025;-74
2021/04/16 13:15:47;;;;;;;9.13;4.90;;;;;;;21.17;20.39;97502.97;5032638;28;20067;-74
2021/04/16 13:18:17;;;;;;;4.45;3.25;;;;;;;20.95;20.92;97499.75;4999422;28;20084;-74
2021/04/16 13:20:45;;;;;;;6.25;3.85;;;;;;;20.58;20.86;97499.13;5010157;28;20185;-74
2021/04/16 13:23:11;;;;;;;7.50;3.42;;;;;;;20.41;20.95;97516.34;5024592;28;20117;-74
2021/04/16 13:25:36;;;;;;;5.90;3.63;;;;;;;19.94;21.48;97512.97;5005415;28;20117;-74
2021/04/16 13:28:02;;;;;;;5.03;3.97;;;;;;;20.16;21.15;97511.66;5018586;28;20474;-74
2021/04/16 13:30:29;;;;;;;6.93;3.80;;;;;;;20.63;21.04;97515.84;5018443;28;20045;-73
2021/04/16 13:33:16;;;;;;;6.72;4.95;;;;;;;21.24;21.96;97525.78;5002150;28;20037;-74
2021/04/16 13:35:56;;;;;;;8.25;4.80;;;;;;;22.87;19.87;97523.34;5001330;28;20071;-74
2021/04/16 13:38:27;;;;;;;9.05;4.57;;;;;;;22.35;20.59;97523.66;5000662;28;20026;-73
2021/04/16 13:40:53;;;;;;;4.72;3.60;;;;;;;22.78;19.56;97522.50;4997151;28;20029;-74
2021/04/16 13:43:20;;;;;;;11.55;5.15;;;;;;;22.39;19.93;97521.44;4990475;28;20022;-74
2021/04/16 13:45:46;;;;;;;8.80;3.70;;;;;;;21.76;19.56;97519.22;5012014;28;20033;-74
2021/04/16 13:48:13;;;;;;;7.57;3.78;;;;;;;21.07;20.57;97525.66;5005128;28;20034;-74
2021/04/16 13:50:39;;;;;;;6.70;3.75;;;;;;;21.22;20.37;97522.41;5005280;28;20104;-74
2021/04/16 13:53:05;;;;;;;8.30;3.53;;;;;;;22.44;19.70;97532.69;5013341;28;20029;-75
2021/04/16 13:55:31;;;;;;;41.00;4.60;;;;;;;22.25;18.74;97530.25;5021592;28;20026;-73
2021/04/16 13:57:57;;;;;;;11.60;4.00;;;;;;;21.54;20.06;97507.06;4977346;28;20493;-73